sensor_id;sensor_type;location;lat;lon;timestamp;P1;durP1;ratioP1;P2;durP2;ratioP2
65769;SDS011;52512;47.650;8.578;2023-04-30T00:00:12;7.10;;;4.90;;
65769;SDS011;52512;47.650;8.578;2023-04-30T00:02:38;10.60;;;5.10;;
65769;SDS011;52512;47.650;8.578;2023-04-30T00:05:03;12.27;;;5.30;;
65769;SDS011;52512;47.650;8.578;2023-04-30T00:07:29;7.03;;;4.77;;
65769;SDS011;52512;47.650;8.578;2023-04-30T00:09:56;11.00;;;5.63;;
65769;SDS011;52512;47.650;8.578;2023-04-30T00:12:21;6.20;;;4.50;;
65769;SDS011;52512;47.650;8.578;2023-04-30T00:14:47;20.63;;;5.00;;
65769;SDS011;52512;47.650;8.578;2023-04-30T00:17:13;7.23;;;4.63;;
65769;SDS011;52512;47.650;8.578;2023-04-30T00:19:39;8.10;;;4.63;;
65769;SDS011;52512;47.650;8.578;2023-04-30T00:22:05;8.00;;;5.00;;
65769;SDS011;52512;47.650;8.578;2023-04-30T00:24:31;8.20;;;4.88;;
65769;SDS011;52512;47.650;8.578;2023-04-30T00:26:57;8.60;;;5.50;;
65769;SDS011;52512;47.650;8.578;2023-04-30T00:29:23;5.07;;;4.10;;
65769;SDS011;52512;47.650;8.578;2023-04-30T00:31:50;6.07;;;4.67;;
65769;SDS011;52512;47.650;8.578;2023-04-30T00:34:15;9.83;;;4.70;;
65769;SDS011;52512;47.650;8.578;2023-04-30T00:36:41;7.23;;;5.00;;
65769;SDS011;52512;47.650;8.578;2023-04-30T00:39:06;7.90;;;4.17;;
65769;SDS011;52512;47.650;8.578;2023-04-30T00:41:33;6.23;;;4.47;;
65769;SDS011;52512;47.650;8.578;2023-04-30T00:43:59;9.70;;;4.35;;
65769;SDS011;52512;47.650;8.578;2023-04-30T00:46:26;10.98;;;5.35;;
65769;SDS011;52512;47.650;8.578;2023-04-30T00:48:52;10.40;;;4.40;;
65769;SDS011;52512;47.650;8.578;2023-04-30T00:51:18;4.63;;;3.90;;
65769;SDS011;52512;47.650;8.578;2023-04-30T00:53:44;11.05;;;6.40;;
65769;SDS011;52512;47.650;8.578;2023-04-30T00:56:10;11.07;;;4.85;;
65769;SDS011;52512;47.650;8.578;2023-04-30T00:58:40;13.00;;;4.68;;
65769;SDS011;52512;47.650;8.578;2023-04-30T01:01:06;3.93;;;3.40;;
65769;SDS011;52512;47.650;8.578;2023-04-30T01:03:31;9.07;;;5.00;;
65769;SDS011;52512;47.650;8.578;2023-04-30T01:06:00;9.00;;;4.07;;
65769;SDS011;52512;47.650;8.578;2023-04-30T01:08:28;7.60;;;4.80;;
65769;SDS011;52512;47.650;8.578;2023-04-30T01:11:00;9.82;;;5.05;;
65769;SDS011;52512;47.650;8.578;2023-04-30T01:22:08;9.63;;;5.00;;
65769;SDS011;52512;47.650;8.578;2023-04-30T01:30:12;5.72;;;4.45;;
65769;SDS011;52512;47.650;8.578;2023-04-30T01:32:40;9.77;;;5.18;;
65769;SDS011;52512;47.650;8.578;2023-04-30T01:35:06;6.07;;;4.60;;
65769;SDS011;52512;47.650;8.578;2023-04-30T01:43:00;9.60;;;5.15;;
65769;SDS011;52512;47.650;8.578;2023-04-30T01:51:21;10.00;;;4.70;;
65769;SDS011;52512;47.650;8.578;2023-04-30T01:53:56;8.10;;;4.60;;
65769;SDS011;52512;47.650;8.578;2023-04-30T01:56:29;6.55;;;4.05;;
65769;SDS011;52512;47.650;8.578;2023-04-30T01:59:01;8.20;;;5.07;;
65769;SDS011;52512;47.650;8.578;2023-04-30T02:01:29;12.85;;;4.78;;
65769;SDS011;52512;47.650;8.578;2023-04-30T02:03:58;9.75;;;4.55;;
65769;SDS011;52512;47.650;8.578;2023-04-30T02:06:24;12.60;;;5.17;;
65769;SDS011;52512;47.650;8.578;2023-04-30T02:08:54;9.68;;;4.88;;
65769;SDS011;52512;47.650;8.578;2023-04-30T02:11:26;7.75;;;4.53;;
65769;SDS011;52512;47.650;8.578;2023-04-30T02:13:52;7.05;;;4.28;;
65769;SDS011;52512;47.650;8.578;2023-04-30T02:16:18;8.43;;;4.27;;
65769;SDS011;52512;47.650;8.578;2023-04-30T02:18:44;7.77;;;4.70;;
65769;SDS011;52512;47.650;8.578;2023-04-30T02:21:10;9.05;;;4.85;;
65769;SDS011;52512;47.650;8.578;2023-04-30T02:23:36;8.27;;;5.70;;
65769;SDS011;52512;47.650;8.578;2023-04-30T02:26:01;10.53;;;5.70;;
65769;SDS011;52512;47.650;8.578;2023-04-30T02:28:27;8.90;;;5.70;;
65769;SDS011;52512;47.650;8.578;2023-04-30T02:30:53;6.33;;;4.00;;
65769;SDS011;52512;47.650;8.578;2023-04-30T02:33:18;8.60;;;4.87;;
65769;SDS011;52512;47.650;8.578;2023-04-30T02:35:44;13.10;;;5.37;;
65769;SDS011;52512;47.650;8.578;2023-04-30T02:38:10;7.87;;;5.37;;
65769;SDS011;52512;47.650;8.578;2023-04-30T02:40:36;10.77;;;5.33;;
65769;SDS011;52512;47.650;8.578;2023-04-30T02:43:01;12.07;;;6.17;;
65769;SDS011;52512;47.650;8.578;2023-04-30T02:45:27;8.70;;;5.30;;
65769;SDS011;52512;47.650;8.578;2023-04-30T02:47:53;11.97;;;5.73;;
65769;SDS011;52512;47.650;8.578;2023-04-30T02:50:18;11.10;;;4.93;;
65769;SDS011;52512;47.650;8.578;2023-04-30T02:52:47;11.10;;;5.60;;
65769;SDS011;52512;47.650;8.578;2023-04-30T02:55:13;11.48;;;5.32;;
65769;SDS011;52512;47.650;8.578;2023-04-30T02:57:40;9.90;;;4.93;;
65769;SDS011;52512;47.650;8.578;2023-04-30T03:00:05;9.63;;;5.25;;
65769;SDS011;52512;47.650;8.578;2023-04-30T03:02:31;11.35;;;5.80;;
65769;SDS011;52512;47.650;8.578;2023-04-30T03:04:57;8.83;;;4.77;;
65769;SDS011;52512;47.650;8.578;2023-04-30T03:07:23;9.23;;;6.00;;
65769;SDS011;52512;47.650;8.578;2023-04-30T03:09:48;8.47;;;5.33;;
65769;SDS011;52512;47.650;8.578;2023-04-30T03:12:14;11.10;;;5.77;;
65769;SDS011;52512;47.650;8.578;2023-04-30T03:14:40;8.83;;;4.80;;
65769;SDS011;52512;47.650;8.578;2023-04-30T03:17:06;13.07;;;5.93;;
65769;SDS011;52512;47.650;8.578;2023-04-30T03:19:31;13.37;;;6.77;;
65769;SDS011;52512;47.650;8.578;2023-04-30T03:21:57;17.60;;;5.60;;
65769;SDS011;52512;47.650;8.578;2023-04-30T03:24:23;10.47;;;5.20;;
65769;SDS011;52512;47.650;8.578;2023-04-30T03:26:49;13.07;;;5.60;;
65769;SDS011;52512;47.650;8.578;2023-04-30T03:29:15;13.20;;;5.80;;
65769;SDS011;52512;47.650;8.578;2023-04-30T03:31:41;10.43;;;5.17;;
65769;SDS011;52512;47.650;8.578;2023-04-30T03:34:07;8.60;;;4.20;;
65769;SDS011;52512;47.650;8.578;2023-04-30T03:36:33;11.45;;;5.18;;
65769;SDS011;52512;47.650;8.578;2023-04-30T03:38:59;12.23;;;5.30;;
65769;SDS011;52512;47.650;8.578;2023-04-30T03:41:25;6.40;;;4.85;;
65769;SDS011;52512;47.650;8.578;2023-04-30T03:43:50;9.63;;;4.73;;
65769;SDS011;52512;47.650;8.578;2023-04-30T03:46:16;16.87;;;5.93;;
65769;SDS011;52512;47.650;8.578;2023-04-30T03:48:42;9.05;;;5.28;;
65769;SDS011;52512;47.650;8.578;2023-04-30T03:51:08;9.43;;;5.30;;
65769;SDS011;52512;47.650;8.578;2023-04-30T03:53:34;8.80;;;4.23;;
65769;SDS011;52512;47.650;8.578;2023-04-30T03:56:00;13.27;;;6.07;;
65769;SDS011;52512;47.650;8.578;2023-04-30T03:58:26;9.98;;;5.68;;
65769;SDS011;52512;47.650;8.578;2023-04-30T04:00:52;9.60;;;5.43;;
65769;SDS011;52512;47.650;8.578;2023-04-30T04:03:18;6.57;;;4.40;;
65769;SDS011;52512;47.650;8.578;2023-04-30T04:05:44;12.93;;;6.13;;
65769;SDS011;52512;47.650;8.578;2023-04-30T04:08:10;9.18;;;5.10;;
65769;SDS011;52512;47.650;8.578;2023-04-30T04:10:36;11.83;;;5.23;;
65769;SDS011;52512;47.650;8.578;2023-04-30T04:13:03;7.03;;;4.13;;
65769;SDS011;52512;47.650;8.578;2023-04-30T04:15:28;14.33;;;5.13;;
65769;SDS011;52512;47.650;8.578;2023-04-30T04:17:54;11.20;;;5.27;;
65769;SDS011;52512;47.650;8.578;2023-04-30T04:20:20;9.77;;;5.10;;
65769;SDS011;52512;47.650;8.578;2023-04-30T04:22:46;9.57;;;4.80;;
65769;SDS011;52512;47.650;8.578;2023-04-30T04:25:12;9.70;;;5.30;;
65769;SDS011;52512;47.650;8.578;2023-04-30T04:27:37;8.13;;;4.43;;
65769;SDS011;52512;47.650;8.578;2023-04-30T04:30:03;10.33;;;5.13;;
65769;SDS011;52512;47.650;8.578;2023-04-30T04:32:29;7.68;;;4.85;;
65769;SDS011;52512;47.650;8.578;2023-04-30T04:34:56;8.85;;;5.13;;
65769;SDS011;52512;47.650;8.578;2023-04-30T04:37:22;10.60;;;4.87;;
65769;SDS011;52512;47.650;8.578;2023-04-30T04:39:48;16.47;;;4.43;;
65769;SDS011;52512;47.650;8.578;2023-04-30T04:42:17;7.50;;;4.47;;
65769;SDS011;52512;47.650;8.578;2023-04-30T04:44:44;8.70;;;4.85;;
65769;SDS011;52512;47.650;8.578;2023-04-30T04:47:10;10.70;;;6.57;;
65769;SDS011;52512;47.650;8.578;2023-04-30T04:49:36;8.88;;;5.40;;
65769;SDS011;52512;47.650;8.578;2023-04-30T04:52:02;14.03;;;6.13;;
65769;SDS011;52512;47.650;8.578;2023-04-30T04:54:29;11.90;;;5.63;;
65769;SDS011;52512;47.650;8.578;2023-04-30T04:56:55;8.15;;;5.30;;
65769;SDS011;52512;47.650;8.578;2023-04-30T04:59:21;10.40;;;5.13;;
65769;SDS011;52512;47.650;8.578;2023-04-30T05:01:47;11.43;;;5.77;;
65769;SDS011;52512;47.650;8.578;2023-04-30T05:04:12;8.17;;;5.03;;
65769;SDS011;52512;47.650;8.578;2023-04-30T05:06:38;9.60;;;5.40;;
65769;SDS011;52512;47.650;8.578;2023-04-30T05:09:04;15.38;;;5.47;;
65769;SDS011;52512;47.650;8.578;2023-04-30T05:11:33;12.48;;;6.13;;
65769;SDS011;52512;47.650;8.578;2023-04-30T05:13:59;10.13;;;5.53;;
65769;SDS011;52512;47.650;8.578;2023-04-30T05:16:25;8.63;;;5.13;;
65769;SDS011;52512;47.650;8.578;2023-04-30T05:18:52;9.68;;;5.80;;
65769;SDS011;52512;47.650;8.578;2023-04-30T05:21:17;10.15;;;6.30;;
65769;SDS011;52512;47.650;8.578;2023-04-30T05:23:43;6.93;;;4.93;;
65769;SDS011;52512;47.650;8.578;2023-04-30T05:26:09;8.13;;;5.33;;
65769;SDS011;52512;47.650;8.578;2023-04-30T05:28:34;8.33;;;5.90;;
65769;SDS011;52512;47.650;8.578;2023-04-30T05:31:00;14.67;;;6.23;;
65769;SDS011;52512;47.650;8.578;2023-04-30T05:33:26;8.47;;;5.50;;
65769;SDS011;52512;47.650;8.578;2023-04-30T05:35:54;9.80;;;6.18;;
65769;SDS011;52512;47.650;8.578;2023-04-30T05:38:24;9.98;;;6.25;;
65769;SDS011;52512;47.650;8.578;2023-04-30T05:40:54;11.27;;;6.65;;
65769;SDS011;52512;47.650;8.578;2023-04-30T05:43:22;12.55;;;6.15;;
65769;SDS011;52512;47.650;8.578;2023-04-30T05:45:48;8.20;;;5.33;;
65769;SDS011;52512;47.650;8.578;2023-04-30T05:48:14;8.30;;;5.30;;
65769;SDS011;52512;47.650;8.578;2023-04-30T05:50:42;12.37;;;6.70;;
65769;SDS011;52512;47.650;8.578;2023-04-30T05:53:10;15.43;;;6.47;;
65769;SDS011;52512;47.650;8.578;2023-04-30T05:55:39;7.63;;;5.95;;
65769;SDS011;52512;47.650;8.578;2023-04-30T05:58:05;11.05;;;6.32;;
65769;SDS011;52512;47.650;8.578;2023-04-30T06:00:32;10.52;;;5.50;;
65769;SDS011;52512;47.650;8.578;2023-04-30T06:03:00;8.40;;;5.47;;
65769;SDS011;52512;47.650;8.578;2023-04-30T06:05:30;13.70;;;6.55;;
65769;SDS011;52512;47.650;8.578;2023-04-30T06:07:58;13.65;;;7.28;;
65769;SDS011;52512;47.650;8.578;2023-04-30T06:10:34;10.98;;;6.18;;
65769;SDS011;52512;47.650;8.578;2023-04-30T06:13:36;10.95;;;6.13;;
65769;SDS011;52512;47.650;8.578;2023-04-30T06:16:27;14.30;;;7.80;;
65769;SDS011;52512;47.650;8.578;2023-04-30T06:19:00;8.63;;;5.40;;
65769;SDS011;52512;47.650;8.578;2023-04-30T06:21:46;6.43;;;5.30;;
65769;SDS011;52512;47.650;8.578;2023-04-30T06:27:56;10.93;;;6.45;;
65769;SDS011;52512;47.650;8.578;2023-04-30T06:30:25;14.57;;;7.50;;
65769;SDS011;52512;47.650;8.578;2023-04-30T06:32:55;7.53;;;5.15;;
65769;SDS011;52512;47.650;8.578;2023-04-30T06:35:23;10.95;;;6.07;;
65769;SDS011;52512;47.650;8.578;2023-04-30T06:37:53;16.33;;;5.93;;
65769;SDS011;52512;47.650;8.578;2023-04-30T06:40:35;14.40;;;7.13;;
65769;SDS011;52512;47.650;8.578;2023-04-30T06:43:13;11.27;;;6.18;;
65769;SDS011;52512;47.650;8.578;2023-04-30T06:45:40;9.02;;;5.47;;
65769;SDS011;52512;47.650;8.578;2023-04-30T06:48:16;10.48;;;6.05;;
65769;SDS011;52512;47.650;8.578;2023-04-30T06:50:45;11.98;;;6.88;;
65769;SDS011;52512;47.650;8.578;2023-04-30T06:53:11;12.40;;;7.20;;
65769;SDS011;52512;47.650;8.578;2023-04-30T06:55:40;10.85;;;6.90;;
65769;SDS011;52512;47.650;8.578;2023-04-30T06:58:06;12.52;;;6.95;;
65769;SDS011;52512;47.650;8.578;2023-04-30T07:00:35;9.80;;;6.40;;
65769;SDS011;52512;47.650;8.578;2023-04-30T07:03:10;10.65;;;6.20;;
65769;SDS011;52512;47.650;8.578;2023-04-30T07:05:41;11.73;;;6.78;;
65769;SDS011;52512;47.650;8.578;2023-04-30T07:08:07;12.02;;;7.85;;
65769;SDS011;52512;47.650;8.578;2023-04-30T07:10:33;18.75;;;5.70;;
65769;SDS011;52512;47.650;8.578;2023-04-30T07:12:59;10.23;;;6.27;;
65769;SDS011;52512;47.650;8.578;2023-04-30T07:15:25;10.85;;;6.35;;
65769;SDS011;52512;47.650;8.578;2023-04-30T07:18:03;9.05;;;5.95;;
65769;SDS011;52512;47.650;8.578;2023-04-30T07:21:02;9.27;;;6.10;;
65769;SDS011;52512;47.650;8.578;2023-04-30T07:24:29;10.20;;;5.70;;
65769;SDS011;52512;47.650;8.578;2023-04-30T07:30:23;19.23;;;5.57;;
65769;SDS011;52512;47.650;8.578;2023-04-30T07:33:07;10.27;;;5.90;;
65769;SDS011;52512;47.650;8.578;2023-04-30T07:35:41;11.50;;;6.45;;
65769;SDS011;52512;47.650;8.578;2023-04-30T07:38:20;9.98;;;5.82;;
65769;SDS011;52512;47.650;8.578;2023-04-30T07:40:48;10.75;;;6.22;;
65769;SDS011;52512;47.650;8.578;2023-04-30T07:43:14;11.60;;;6.23;;
65769;SDS011;52512;47.650;8.578;2023-04-30T07:45:41;12.75;;;5.38;;
65769;SDS011;52512;47.650;8.578;2023-04-30T07:48:17;10.70;;;6.75;;
65769;SDS011;52512;47.650;8.578;2023-04-30T07:50:48;10.80;;;5.10;;
65769;SDS011;52512;47.650;8.578;2023-04-30T07:53:15;10.77;;;5.72;;
65769;SDS011;52512;47.650;8.578;2023-04-30T07:55:52;14.48;;;6.85;;
65769;SDS011;52512;47.650;8.578;2023-04-30T07:58:27;9.40;;;5.35;;
65769;SDS011;52512;47.650;8.578;2023-04-30T08:00:52;11.70;;;6.97;;
65769;SDS011;52512;47.650;8.578;2023-04-30T08:03:18;13.20;;;6.13;;
65769;SDS011;52512;47.650;8.578;2023-04-30T08:05:45;10.05;;;5.85;;
65769;SDS011;52512;47.650;8.578;2023-04-30T08:08:11;10.60;;;6.05;;
65769;SDS011;52512;47.650;8.578;2023-04-30T08:10:37;11.30;;;5.97;;
65769;SDS011;52512;47.650;8.578;2023-04-30T08:13:08;8.52;;;5.70;;
65769;SDS011;52512;47.650;8.578;2023-04-30T08:15:34;14.70;;;5.43;;
65769;SDS011;52512;47.650;8.578;2023-04-30T08:18:01;7.72;;;4.78;;
65769;SDS011;52512;47.650;8.578;2023-04-30T08:20:30;11.35;;;6.18;;
65769;SDS011;52512;47.650;8.578;2023-04-30T08:22:57;7.80;;;5.80;;
65769;SDS011;52512;47.650;8.578;2023-04-30T08:25:22;14.30;;;5.77;;
65769;SDS011;52512;47.650;8.578;2023-04-30T08:27:51;11.82;;;5.53;;
65769;SDS011;52512;47.650;8.578;2023-04-30T08:30:16;12.43;;;5.77;;
65769;SDS011;52512;47.650;8.578;2023-04-30T08:32:42;8.93;;;5.27;;
65769;SDS011;52512;47.650;8.578;2023-04-30T08:35:08;8.97;;;5.47;;
65769;SDS011;52512;47.650;8.578;2023-04-30T08:37:34;10.10;;;4.75;;
65769;SDS011;52512;47.650;8.578;2023-04-30T08:40:00;9.40;;;5.47;;
65769;SDS011;52512;47.650;8.578;2023-04-30T08:42:30;7.93;;;5.50;;
65769;SDS011;52512;47.650;8.578;2023-04-30T08:45:00;9.25;;;5.10;;
65769;SDS011;52512;47.650;8.578;2023-04-30T08:47:28;9.10;;;5.15;;
65769;SDS011;52512;47.650;8.578;2023-04-30T08:49:54;7.88;;;5.63;;
65769;SDS011;52512;47.650;8.578;2023-04-30T08:52:20;9.07;;;6.00;;
65769;SDS011;52512;47.650;8.578;2023-04-30T08:54:46;10.13;;;6.60;;
65769;SDS011;52512;47.650;8.578;2023-04-30T08:57:14;17.58;;;6.20;;
65769;SDS011;52512;47.650;8.578;2023-04-30T08:59:39;7.77;;;4.80;;
65769;SDS011;52512;47.650;8.578;2023-04-30T09:02:06;7.50;;;5.13;;
65769;SDS011;52512;47.650;8.578;2023-04-30T09:04:32;10.20;;;5.80;;
65769;SDS011;52512;47.650;8.578;2023-04-30T09:06:57;8.83;;;4.87;;
65769;SDS011;52512;47.650;8.578;2023-04-30T09:12:15;8.32;;;5.18;;
65769;SDS011;52512;47.650;8.578;2023-04-30T09:15:03;8.38;;;5.40;;
65769;SDS011;52512;47.650;8.578;2023-04-30T09:17:31;9.20;;;5.20;;
65769;SDS011;52512;47.650;8.578;2023-04-30T09:20:10;7.13;;;5.30;;
65769;SDS011;52512;47.650;8.578;2023-04-30T09:22:37;7.50;;;4.83;;
65769;SDS011;52512;47.650;8.578;2023-04-30T09:25:05;8.40;;;5.20;;
65769;SDS011;52512;47.650;8.578;2023-04-30T09:27:31;8.03;;;5.07;;
65769;SDS011;52512;47.650;8.578;2023-04-30T09:29:57;6.80;;;4.90;;
65769;SDS011;52512;47.650;8.578;2023-04-30T09:32:23;8.40;;;5.50;;
65769;SDS011;52512;47.650;8.578;2023-04-30T09:34:49;6.40;;;5.03;;
65769;SDS011;52512;47.650;8.578;2023-04-30T09:37:16;10.43;;;5.63;;
65769;SDS011;52512;47.650;8.578;2023-04-30T09:39:46;10.40;;;5.70;;
65769;SDS011;52512;47.650;8.578;2023-04-30T09:42:13;13.20;;;5.03;;
65769;SDS011;52512;47.650;8.578;2023-04-30T09:44:39;8.77;;;4.17;;
65769;SDS011;52512;47.650;8.578;2023-04-30T09:47:15;7.07;;;4.87;;
65769;SDS011;52512;47.650;8.578;2023-04-30T09:49:43;9.07;;;4.97;;
65769;SDS011;52512;47.650;8.578;2023-04-30T09:52:13;7.40;;;4.50;;
65769;SDS011;52512;47.650;8.578;2023-04-30T09:54:39;17.90;;;4.83;;
65769;SDS011;52512;47.650;8.578;2023-04-30T09:57:08;13.30;;;5.33;;
65769;SDS011;52512;47.650;8.578;2023-04-30T09:59:36;10.80;;;6.93;;
65769;SDS011;52512;47.650;8.578;2023-04-30T10:02:06;12.90;;;7.50;;
65769;SDS011;52512;47.650;8.578;2023-04-30T10:04:36;7.83;;;5.70;;
65769;SDS011;52512;47.650;8.578;2023-04-30T10:07:14;8.00;;;5.10;;
65769;SDS011;52512;47.650;8.578;2023-04-30T10:12:15;7.83;;;5.80;;
65769;SDS011;52512;47.650;8.578;2023-04-30T10:14:54;10.63;;;5.40;;
65769;SDS011;52512;47.650;8.578;2023-04-30T10:17:43;8.60;;;6.07;;
65769;SDS011;52512;47.650;8.578;2023-04-30T10:20:23;7.20;;;5.07;;
65769;SDS011;52512;47.650;8.578;2023-04-30T10:22:54;10.87;;;5.57;;
65769;SDS011;52512;47.650;8.578;2023-04-30T10:25:20;4.43;;;4.03;;
65769;SDS011;52512;47.650;8.578;2023-04-30T10:27:47;7.50;;;4.87;;
65769;SDS011;52512;47.650;8.578;2023-04-30T10:30:13;6.40;;;4.20;;
65769;SDS011;52512;47.650;8.578;2023-04-30T10:32:56;6.97;;;4.73;;
65769;SDS011;52512;47.650;8.578;2023-04-30T10:40:47;5.07;;;4.57;;
65769;SDS011;52512;47.650;8.578;2023-04-30T10:43:13;12.10;;;5.20;;
65769;SDS011;52512;47.650;8.578;2023-04-30T10:45:42;21.00;;;4.30;;
65769;SDS011;52512;47.650;8.578;2023-04-30T10:48:08;8.27;;;4.57;;
65769;SDS011;52512;47.650;8.578;2023-04-30T10:50:41;5.90;;;5.30;;
65769;SDS011;52512;47.650;8.578;2023-04-30T10:53:16;9.47;;;5.10;;
65769;SDS011;52512;47.650;8.578;2023-04-30T10:55:52;8.33;;;5.23;;
65769;SDS011;52512;47.650;8.578;2023-04-30T10:58:22;15.80;;;4.90;;
65769;SDS011;52512;47.650;8.578;2023-04-30T11:01:01;11.97;;;6.50;;
65769;SDS011;52512;47.650;8.578;2023-04-30T11:03:30;7.20;;;4.57;;
65769;SDS011;52512;47.650;8.578;2023-04-30T11:06:06;7.17;;;5.90;;
65769;SDS011;52512;47.650;8.578;2023-04-30T11:08:35;6.40;;;4.40;;
65769;SDS011;52512;47.650;8.578;2023-04-30T11:11:02;4.87;;;3.67;;
65769;SDS011;52512;47.650;8.578;2023-04-30T11:13:47;5.43;;;3.60;;
65769;SDS011;52512;47.650;8.578;2023-04-30T11:16:27;8.13;;;4.17;;
65769;SDS011;52512;47.650;8.578;2023-04-30T11:18:55;10.33;;;3.77;;
65769;SDS011;52512;47.650;8.578;2023-04-30T11:21:31;6.30;;;3.87;;
65769;SDS011;52512;47.650;8.578;2023-04-30T11:24:04;9.50;;;4.33;;
65769;SDS011;52512;47.650;8.578;2023-04-30T11:29:31;6.03;;;4.20;;
65769;SDS011;52512;47.650;8.578;2023-04-30T11:32:02;6.03;;;3.03;;
65769;SDS011;52512;47.650;8.578;2023-04-30T11:34:32;14.93;;;4.33;;
65769;SDS011;52512;47.650;8.578;2023-04-30T11:37:04;5.07;;;3.23;;
65769;SDS011;52512;47.650;8.578;2023-04-30T11:39:34;3.80;;;3.50;;
65769;SDS011;52512;47.650;8.578;2023-04-30T11:42:03;3.63;;;3.20;;
65769;SDS011;52512;47.650;8.578;2023-04-30T11:44:43;5.97;;;3.10;;
65769;SDS011;52512;47.650;8.578;2023-04-30T11:47:20;3.53;;;3.23;;
65769;SDS011;52512;47.650;8.578;2023-04-30T11:49:46;4.83;;;3.43;;
65769;SDS011;52512;47.650;8.578;2023-04-30T11:52:20;3.53;;;3.03;;
65769;SDS011;52512;47.650;8.578;2023-04-30T11:55:15;2.70;;;2.50;;
65769;SDS011;52512;47.650;8.578;2023-04-30T11:58:11;3.03;;;2.80;;
65769;SDS011;52512;47.650;8.578;2023-04-30T12:00:42;2.40;;;2.30;;
65769;SDS011;52512;47.650;8.578;2023-04-30T12:03:40;2.87;;;2.67;;
65769;SDS011;52512;47.650;8.578;2023-04-30T12:07:06;8.03;;;2.93;;
65769;SDS011;52512;47.650;8.578;2023-04-30T12:09:54;9.70;;;3.30;;
65769;SDS011;52512;47.650;8.578;2023-04-30T12:13:06;5.17;;;3.10;;
65769;SDS011;52512;47.650;8.578;2023-04-30T12:15:41;3.83;;;3.13;;
65769;SDS011;52512;47.650;8.578;2023-04-30T12:18:49;11.40;;;2.97;;
65769;SDS011;52512;47.650;8.578;2023-04-30T12:21:27;7.27;;;3.37;;
65769;SDS011;52512;47.650;8.578;2023-04-30T12:24:13;4.30;;;3.27;;
65769;SDS011;52512;47.650;8.578;2023-04-30T12:26:41;3.37;;;2.93;;
65769;SDS011;52512;47.650;8.578;2023-04-30T12:29:39;3.83;;;2.90;;
65769;SDS011;52512;47.650;8.578;2023-04-30T12:32:56;5.80;;;3.40;;
65769;SDS011;52512;47.650;8.578;2023-04-30T12:35:51;3.67;;;3.07;;
65769;SDS011;52512;47.650;8.578;2023-04-30T12:42:17;3.83;;;2.80;;
65769;SDS011;52512;47.650;8.578;2023-04-30T12:48:25;3.57;;;3.27;;
65769;SDS011;52512;47.650;8.578;2023-04-30T12:51:45;2.00;;;1.90;;
65769;SDS011;52512;47.650;8.578;2023-04-30T13:01:15;3.03;;;2.53;;
65769;SDS011;52512;47.650;8.578;2023-04-30T13:03:54;6.00;;;3.10;;
65769;SDS011;52512;47.650;8.578;2023-04-30T13:10:30;2.60;;;2.40;;
65769;SDS011;52512;47.650;8.578;2023-04-30T13:13:09;4.57;;;2.30;;
65769;SDS011;52512;47.650;8.578;2023-04-30T13:16:11;2.30;;;2.20;;
65769;SDS011;52512;47.650;8.578;2023-04-30T13:22:39;2.37;;;2.17;;
65769;SDS011;52512;47.650;8.578;2023-04-30T13:29:21;3.33;;;2.67;;
65769;SDS011;52512;47.650;8.578;2023-04-30T13:31:49;6.10;;;2.57;;
65769;SDS011;52512;47.650;8.578;2023-04-30T13:34:18;4.30;;;3.40;;
65769;SDS011;52512;47.650;8.578;2023-04-30T13:37:20;3.73;;;3.43;;
65769;SDS011;52512;47.650;8.578;2023-04-30T13:42:56;2.57;;;2.37;;
65769;SDS011;52512;47.650;8.578;2023-04-30T13:45:24;2.57;;;2.47;;
65769;SDS011;52512;47.650;8.578;2023-04-30T13:48:02;3.80;;;3.40;;
65769;SDS011;52512;47.650;8.578;2023-04-30T13:51:26;4.93;;;2.93;;
65769;SDS011;52512;47.650;8.578;2023-04-30T13:54:14;4.20;;;2.50;;
65769;SDS011;52512;47.650;8.578;2023-04-30T14:18:32;2.83;;;2.63;;
65769;SDS011;52512;47.650;8.578;2023-04-30T14:21:11;2.17;;;1.90;;
65769;SDS011;52512;47.650;8.578;2023-04-30T14:23:42;3.80;;;2.30;;
65769;SDS011;52512;47.650;8.578;2023-04-30T14:26:20;4.37;;;2.43;;
65769;SDS011;52512;47.650;8.578;2023-04-30T14:28:53;4.10;;;2.50;;
65769;SDS011;52512;47.650;8.578;2023-04-30T14:31:55;2.90;;;2.53;;
65769;SDS011;52512;47.650;8.578;2023-04-30T14:34:21;3.33;;;2.90;;
65769;SDS011;52512;47.650;8.578;2023-04-30T14:36:50;2.90;;;2.70;;
65769;SDS011;52512;47.650;8.578;2023-04-30T14:39:37;4.57;;;2.70;;
65769;SDS011;52512;47.650;8.578;2023-04-30T14:42:02;2.53;;;2.33;;
65769;SDS011;52512;47.650;8.578;2023-04-30T14:44:28;3.23;;;1.93;;
65769;SDS011;52512;47.650;8.578;2023-04-30T14:47:11;6.97;;;3.03;;
65769;SDS011;52512;47.650;8.578;2023-04-30T14:49:40;2.50;;;2.40;;
65769;SDS011;52512;47.650;8.578;2023-04-30T14:52:08;2.43;;;2.23;;
65769;SDS011;52512;47.650;8.578;2023-04-30T14:54:33;2.90;;;2.70;;
65769;SDS011;52512;47.650;8.578;2023-04-30T14:57:02;3.80;;;2.57;;
65769;SDS011;52512;47.650;8.578;2023-04-30T14:59:30;2.13;;;2.03;;
65769;SDS011;52512;47.650;8.578;2023-04-30T15:01:59;4.93;;;2.70;;
65769;SDS011;52512;47.650;8.578;2023-04-30T15:04:37;3.63;;;3.20;;
65769;SDS011;52512;47.650;8.578;2023-04-30T15:07:09;4.47;;;2.70;;
65769;SDS011;52512;47.650;8.578;2023-04-30T15:09:37;4.37;;;3.20;;
65769;SDS011;52512;47.650;8.578;2023-04-30T15:12:23;3.27;;;2.93;;
65769;SDS011;52512;47.650;8.578;2023-04-30T15:14:54;2.20;;;2.03;;
65769;SDS011;52512;47.650;8.578;2023-04-30T15:17:22;2.70;;;2.50;;
65769;SDS011;52512;47.650;8.578;2023-04-30T15:19:57;2.03;;;1.93;;
65769;SDS011;52512;47.650;8.578;2023-04-30T15:22:49;2.93;;;2.27;;
65769;SDS011;52512;47.650;8.578;2023-04-30T15:25:29;2.80;;;2.50;;
65769;SDS011;52512;47.650;8.578;2023-04-30T15:28:06;2.77;;;2.47;;
65769;SDS011;52512;47.650;8.578;2023-04-30T15:30:46;2.57;;;2.10;;
65769;SDS011;52512;47.650;8.578;2023-04-30T15:33:41;5.60;;;2.93;;
65769;SDS011;52512;47.650;8.578;2023-04-30T15:36:48;3.10;;;2.77;;
65769;SDS011;52512;47.650;8.578;2023-04-30T15:39:37;3.40;;;3.00;;
65769;SDS011;52512;47.650;8.578;2023-04-30T15:42:08;2.90;;;2.60;;
65769;SDS011;52512;47.650;8.578;2023-04-30T15:44:34;3.00;;;2.47;;
65769;SDS011;52512;47.650;8.578;2023-04-30T15:47:02;3.03;;;2.77;;
65769;SDS011;52512;47.650;8.578;2023-04-30T15:49:35;2.70;;;2.50;;
65769;SDS011;52512;47.650;8.578;2023-04-30T15:52:22;2.23;;;2.10;;
65769;SDS011;52512;47.650;8.578;2023-04-30T15:54:56;5.17;;;3.17;;
65769;SDS011;52512;47.650;8.578;2023-04-30T15:57:22;4.47;;;3.00;;
65769;SDS011;52512;47.650;8.578;2023-04-30T15:59:48;6.73;;;2.70;;
65769;SDS011;52512;47.650;8.578;2023-04-30T16:02:14;8.27;;;2.60;;
65769;SDS011;52512;47.650;8.578;2023-04-30T16:04:40;3.17;;;2.97;;
65769;SDS011;52512;47.650;8.578;2023-04-30T16:07:07;2.90;;;2.70;;
65769;SDS011;52512;47.650;8.578;2023-04-30T16:09:40;3.20;;;2.77;;
65769;SDS011;52512;47.650;8.578;2023-04-30T16:12:09;3.37;;;2.27;;
65769;SDS011;52512;47.650;8.578;2023-04-30T16:14:36;2.87;;;2.60;;
65769;SDS011;52512;47.650;8.578;2023-04-30T16:17:02;2.60;;;2.40;;
65769;SDS011;52512;47.650;8.578;2023-04-30T16:19:30;2.80;;;2.60;;
65769;SDS011;52512;47.650;8.578;2023-04-30T16:21:56;4.10;;;2.60;;
65769;SDS011;52512;47.650;8.578;2023-04-30T16:24:22;5.80;;;2.80;;
65769;SDS011;52512;47.650;8.578;2023-04-30T16:26:48;2.53;;;2.40;;
65769;SDS011;52512;47.650;8.578;2023-04-30T16:29:13;2.53;;;2.27;;
65769;SDS011;52512;47.650;8.578;2023-04-30T16:31:40;4.60;;;2.97;;
65769;SDS011;52512;47.650;8.578;2023-04-30T16:34:06;3.00;;;2.80;;
65769;SDS011;52512;47.650;8.578;2023-04-30T16:36:36;4.40;;;2.50;;
65769;SDS011;52512;47.650;8.578;2023-04-30T16:39:02;2.47;;;2.30;;
65769;SDS011;52512;47.650;8.578;2023-04-30T16:41:28;3.03;;;2.77;;
65769;SDS011;52512;47.650;8.578;2023-04-30T16:43:54;2.73;;;2.53;;